Time;durP1;ratioP1;P1;durP2;ratioP2;P2;SDS_P1;SDS_P2;PMS_P1;PMS_P2;Temp;Humidity;BMP_temperature;BMP_pressure;BME280_temperature;BME280_humidity;BME280_pressure;Samples;Min_cycle;Max_cycle;Signal;HPM_P1;HPM_P2
2023/08/10 00:00:58;;;;;;;3.90;1.20;;;;;;;;;;4934761;29;20122;-67
2023/08/10 00:03:24;;;;;;;3.22;1.20;;;;;;;;;;4940161;29;20510;-66
2023/08/10 00:05:49;;;;;;;5.63;1.50;;;;;;;;;;4955406;28;20031;-67
2023/08/10 00:08:15;;;;;;;6.47;1.48;;;;;;;;;;4957530;28;20484;-65
2023/08/10 00:10:40;;;;;;;4.18;1.27;;;;;;;;;;4957365;28;20122;-66
2023/08/10 00:13:06;;;;;;;5.00;1.42;;;;;;;;;;4962873;28;20031;-67
2023/08/10 00:15:31;;;;;;;4.28;1.40;;;;;;;;;;4976721;28;20055;-66
2023/08/10 00:17:57;;;;;;;3.70;1.30;;;;;;;;;;4976749;28;20035;-67
2023/08/10 00:20:22;;;;;;;2.47;1.35;;;;;;;;;;4976759;28;20027;-67
2023/08/10 00:22:47;;;;;;;2.70;1.50;;;;;;;;;;4957411;28;20428;-67
2023/08/10 00:25:13;;;;;;;4.07;1.40;;;;;;;;;;4956741;28;20400;-67
2023/08/10 00:27:39;;;;;;;2.83;1.20;;;;;;;;;;4957300;28;20723;-67
2023/08/10 00:30:09;;;;;;;4.30;1.20;;;;;;;;;;4968935;28;20077;-66
2023/08/10 00:32:35;;;;;;;6.50;1.30;;;;;;;;;;4976758;28;20408;-67
2023/08/10 00:35:00;;;;;;;5.78;1.38;;;;;;;;;;4964266;28;20031;-66
2023/08/10 00:37:26;;;;;;;1.95;1.40;;;;;;;;;;4957427;28;20034;-67
2023/08/10 00:39:51;;;;;;;3.35;1.20;;;;;;;;;;4957106;28;20027;-67
2023/08/10 00:42:17;;;;;;;4.57;1.17;;;;;;;;;;4957306;28;20031;-66
2023/08/10 00:44:42;;;;;;;5.53;1.60;;;;;;;;;;4957348;28;20023;-67
2023/08/10 00:47:08;;;;;;;7.20;1.30;;;;;;;;;;4952590;28;20031;-61
2023/08/10 00:49:33;;;;;;;5.55;1.42;;;;;;;;;;4947884;29;20039;-61
2023/08/10 00:51:59;;;;;;;2.90;1.48;;;;;;;;;;4947229;28;20170;-63
2023/08/10 00:54:24;;;;;;;9.43;1.50;;;;;;;;;;4947378;28;20027;-61
2023/08/10 00:56:50;;;;;;;5.85;1.70;;;;;;;;;;4947192;29;20036;-61
2023/08/10 00:59:16;;;;;;;7.63;1.60;;;;;;;;;;4944854;28;20047;-61
2023/08/10 01:01:42;;;;;;;4.95;1.35;;;;;;;;;;4946149;29;20032;-61
2023/08/10 01:04:08;;;;;;;6.03;1.20;;;;;;;;;;4948508;28;20106;-62
2023/08/10 01:06:39;;;;;;;8.93;1.58;;;;;;;;;;4946315;28;20019;-62
2023/08/10 01:09:28;;;;;;;5.90;1.20;;;;;;;;;;4948788;29;20042;-61
2023/08/10 01:12:20;;;;;;;6.22;1.35;;;;;;;;;;4947527;29;20063;-61
2023/08/10 01:14:57;;;;;;;3.50;1.30;;;;;;;;;;4946978;28;20039;-61
2023/08/10 01:17:27;;;;;;;4.13;1.20;;;;;;;;;;4950492;28;20028;-66
2023/08/10 01:19:54;;;;;;;6.75;1.60;;;;;;;;;;4956622;28;20020;-65
2023/08/10 01:22:38;;;;;;;6.28;1.50;;;;;;;;;;4967932;28;20042;-65
2023/08/10 01:25:06;;;;;;;5.35;1.30;;;;;;;;;;4975694;28;20027;-66
2023/08/10 01:27:33;;;;;;;2.90;1.38;;;;;;;;;;4975830;28;20027;-66
2023/08/10 01:30:00;;;;;;;5.93;1.25;;;;;;;;;;4975711;28;20417;-66
2023/08/10 01:32:29;;;;;;;4.95;1.33;;;;;;;;;;4975718;28;20114;-65
2023/08/10 01:34:55;;;;;;;3.10;1.33;;;;;;;;;;4969566;28;20166;-65
2023/08/10 01:37:21;;;;;;;4.55;1.27;;;;;;;;;;4956276;28;20182;-66
2023/08/10 01:39:47;;;;;;;4.10;1.33;;;;;;;;;;4956032;28;20536;-67
2023/08/10 01:42:13;;;;;;;5.70;1.25;;;;;;;;;;4956201;28;20166;-66
2023/08/10 01:44:38;;;;;;;4.07;1.40;;;;;;;;;;4956178;28;20055;-67
2023/08/10 01:47:09;;;;;;;6.25;1.30;;;;;;;;;;4956239;28;20046;-67
2023/08/10 01:49:37;;;;;;;3.47;1.48;;;;;;;;;;4956153;28;20540;-67
2023/08/10 01:52:07;;;;;;;6.93;1.30;;;;;;;;;;4955873;28;20031;-65
2023/08/10 01:54:36;;;;;;;8.10;1.42;;;;;;;;;;4955960;28;20031;-64
2023/08/10 01:57:02;;;;;;;8.38;1.40;;;;;;;;;;4956108;28;20461;-67
2023/08/10 01:59:28;;;;;;;5.32;1.50;;;;;;;;;;4955817;28;20027;-66
2023/08/10 02:01:54;;;;;;;5.07;1.40;;;;;;;;;;4963496;23;20134;-64
2023/08/10 02:04:20;;;;;;;5.30;1.30;;;;;;;;;;4955952;28;20035;-65
2023/08/10 02:06:45;;;;;;;5.53;1.52;;;;;;;;;;4955600;28;20093;-67
2023/08/10 02:09:11;;;;;;;4.95;1.40;;;;;;;;;;4955605;28;20019;-67
2023/08/10 02:11:36;;;;;;;9.75;1.65;;;;;;;;;;4955639;28;20027;-65
2023/08/10 02:14:02;;;;;;;6.20;1.40;;;;;;;;;;4955670;28;20027;-67
2023/08/10 02:16:27;;;;;;;8.20;1.50;;;;;;;;;;4955655;28;20039;-67
2023/08/10 02:18:53;;;;;;;3.03;1.45;;;;;;;;;;4955587;28;20421;-66
2023/08/10 02:21:18;;;;;;;5.82;1.33;;;;;;;;;;4962434;28;20031;-66
2023/08/10 02:23:43;;;;;;;7.88;1.70;;;;;;;;;;4974954;28;20380;-67
2023/08/10 02:26:09;;;;;;;5.65;1.73;;;;;;;;;;4974802;28;20476;-63
2023/08/10 02:28:34;;;;;;;12.18;1.40;;;;;;;;;;4974510;28;20031;-67
2023/08/10 02:31:00;;;;;;;6.13;1.50;;;;;;;;;;4974635;28;20037;-67
2023/08/10 02:33:25;;;;;;;2.65;1.38;;;;;;;;;;4974600;28;20027;-67
2023/08/10 02:35:51;;;;;;;6.60;1.48;;;;;;;;;;4974488;28;20027;-65
2023/08/10 02:38:16;;;;;;;4.75;1.50;;;;;;;;;;4974675;28;20035;-67
2023/08/10 02:40:42;;;;;;;6.05;1.92;;;;;;;;;;4974497;28;20040;-65
2023/08/10 02:43:07;;;;;;;5.70;1.80;;;;;;;;;;4974574;28;20019;-65
2023/08/10 02:45:32;;;;;;;4.45;1.70;;;;;;;;;;4974437;28;20027;-66
2023/08/10 02:47:58;;;;;;;8.50;1.83;;;;;;;;;;4974326;28;20022;-65
2023/08/10 02:50:24;;;;;;;8.60;1.50;;;;;;;;;;4974223;28;20062;-66
2023/08/10 02:52:49;;;;;;;3.70;1.15;;;;;;;;;;4957613;28;20122;-67
2023/08/10 02:55:17;;;;;;;5.55;1.60;;;;;;;;;;4955049;28;20519;-66
2023/08/10 02:57:44;;;;;;;10.68;1.60;;;;;;;;;;4955005;28;20511;-66
2023/08/10 03:00:12;;;;;;;7.07;1.60;;;;;;;;;;4954470;28;20027;-66
2023/08/10 03:02:38;;;;;;;6.80;1.60;;;;;;;;;;4954946;28;20058;-67
2023/08/10 03:05:05;;;;;;;6.55;1.50;;;;;;;;;;4954585;28;20030;-67
2023/08/10 03:07:31;;;;;;;5.63;1.40;;;;;;;;;;4954953;28;20028;-65
2023/08/10 03:09:57;;;;;;;3.65;1.40;;;;;;;;;;4954788;28;20042;-64
2023/08/10 03:12:22;;;;;;;7.47;1.70;;;;;;;;;;4954761;28;20086;-67
2023/08/10 03:14:48;;;;;;;6.95;1.80;;;;;;;;;;4954835;28;20050;-67
2023/08/10 03:17:13;;;;;;;6.60;1.40;;;;;;;;;;4954912;28;20099;-67
2023/08/10 03:19:39;;;;;;;4.78;1.42;;;;;;;;;;4954573;28;20050;-67
2023/08/10 03:22:04;;;;;;;8.63;1.50;;;;;;;;;;4954605;28;20059;-67
2023/08/10 03:24:30;;;;;;;7.05;1.58;;;;;;;;;;4954548;28;20063;-67
2023/08/10 03:26:55;;;;;;;6.50;1.67;;;;;;;;;;4954700;28;20089;-65
2023/08/10 03:29:20;;;;;;;8.02;1.48;;;;;;;;;;4954602;28;20027;-66
2023/08/10 03:31:46;;;;;;;3.63;1.75;;;;;;;;;;4954692;28;20031;-66
2023/08/10 03:34:11;;;;;;;5.43;1.92;;;;;;;;;;4954431;28;20035;-66
2023/08/10 03:36:37;;;;;;;3.85;1.27;;;;;;;;;;4954590;28;20031;-67
2023/08/10 03:39:02;;;;;;;12.68;1.75;;;;;;;;;;4954427;28;20023;-67
2023/08/10 03:41:28;;;;;;;7.85;1.42;;;;;;;;;;4957120;28;20027;-67
2023/08/10 03:43:53;;;;;;;10.82;2.00;;;;;;;;;;4958595;28;20031;-66
2023/08/10 03:46:18;;;;;;;5.50;1.60;;;;;;;;;;4958446;28;20023;-65
2023/08/10 03:48:44;;;;;;;13.52;1.40;;;;;;;;;;4958156;28;20026;-66
2023/08/10 03:51:09;;;;;;;10.10;1.85;;;;;;;;;;4958149;28;20054;-67
2023/08/10 03:53:35;;;;;;;10.10;1.77;;;;;;;;;;4958221;28;20062;-63
2023/08/10 03:56:01;;;;;;;7.38;1.80;;;;;;;;;;4958323;28;20035;-66
2023/08/10 03:58:26;;;;;;;6.82;2.15;;;;;;;;;;4958163;28;20354;-66
2023/08/10 04:00:52;;;;;;;6.78;1.55;;;;;;;;;;4957816;28;20515;-67
2023/08/10 04:03:17;;;;;;;7.97;2.20;;;;;;;;;;4957764;28;20039;-67
2023/08/10 04:05:43;;;;;;;10.32;1.75;;;;;;;;;;4958058;28;20015;-67
2023/08/10 04:08:09;;;;;;;5.63;1.50;;;;;;;;;;4958027;28;20034;-64
2023/08/10 04:10:35;;;;;;;7.10;1.60;;;;;;;;;;4957815;28;20054;-65
2023/08/10 04:13:01;;;;;;;6.53;1.90;;;;;;;;;;4957896;28;20468;-67
2023/08/10 04:15:27;;;;;;;9.80;2.00;;;;;;;;;;4957819;28;20093;-66
2023/08/10 04:17:53;;;;;;;5.60;1.90;;;;;;;;;;4957716;28;20023;-66
2023/08/10 04:20:18;;;;;;;13.98;2.30;;;;;;;;;;4957764;28;20023;-67
2023/08/10 04:22:43;;;;;;;6.72;1.42;;;;;;;;;;4957693;28;20387;-67
2023/08/10 04:25:09;;;;;;;5.60;1.60;;;;;;;;;;4957708;28;20035;-67
2023/08/10 04:27:35;;;;;;;9.15;1.92;;;;;;;;;;4957530;28;20160;-66
2023/08/10 04:30:03;;;;;;;8.25;1.40;;;;;;;;;;4957473;28;20031;-66
2023/08/10 04:32:28;;;;;;;8.40;1.75;;;;;;;;;;4957226;28;20043;-65
2023/08/10 04:34:53;;;;;;;9.52;1.85;;;;;;;;;;4957499;28;20430;-64
2023/08/10 04:37:19;;;;;;;7.15;1.70;;;;;;;;;;4957463;28;20023;-67
2023/08/10 04:39:45;;;;;;;8.63;2.03;;;;;;;;;;4957042;28;20051;-66
2023/08/10 04:42:10;;;;;;;7.63;1.80;;;;;;;;;;4957335;28;20385;-66
2023/08/10 04:44:36;;;;;;;7.90;1.92;;;;;;;;;;4957244;28;20380;-67
2023/08/10 04:47:01;;;;;;;9.30;1.92;;;;;;;;;;4956972;28;20377;-66
2023/08/10 04:49:28;;;;;;;6.80;1.48;;;;;;;;;;4957262;28;20366;-67
2023/08/10 04:51:54;;;;;;;4.75;1.60;;;;;;;;;;4955727;28;20512;-66
2023/08/10 04:54:20;;;;;;;12.65;2.00;;;;;;;;;;4957134;28;20466;-62
2023/08/10 04:56:46;;;;;;;6.93;1.65;;;;;;;;;;4957247;28;20034;-64
2023/08/10 04:59:11;;;;;;;9.55;1.63;;;;;;;;;;4957064;28;20417;-66
2023/08/10 05:01:38;;;;;;;7.53;1.67;;;;;;;;;;4956417;28;20066;-67
2023/08/10 05:04:04;;;;;;;9.55;1.80;;;;;;;;;;4957091;28;20081;-65
2023/08/10 05:06:30;;;;;;;6.07;1.38;;;;;;;;;;4956938;28;20031;-65
2023/08/10 05:08:56;;;;;;;9.10;1.83;;;;;;;;;;4956605;28;20031;-67
2023/08/10 05:11:22;;;;;;;11.60;1.80;;;;;;;;;;4956800;28;20078;-63
2023/08/10 05:13:47;;;;;;;7.88;1.88;;;;;;;;;;4956870;28;20031;-65
2023/08/10 05:16:13;;;;;;;11.35;1.60;;;;;;;;;;4963834;23;20346;-65
2023/08/10 05:18:39;;;;;;;11.90;2.10;;;;;;;;;;4956710;28;20031;-67
2023/08/10 05:21:05;;;;;;;8.35;1.50;;;;;;;;;;4961863;28;20118;-61
2023/08/10 05:23:30;;;;;;;6.38;1.70;;;;;;;;;;4975921;28;20027;-67
2023/08/10 05:25:56;;;;;;;9.45;2.10;;;;;;;;;;4975849;28;20109;-63
2023/08/10 05:28:22;;;;;;;10.27;1.58;;;;;;;;;;4975704;28;20045;-64
2023/08/10 05:30:47;;;;;;;7.32;1.40;;;;;;;;;;4975534;28;20432;-67
2023/08/10 05:33:13;;;;;;;16.60;2.10;;;;;;;;;;4975768;28;20062;-66
2023/08/10 05:35:38;;;;;;;8.95;1.50;;;;;;;;;;4975659;28;20026;-65
2023/08/10 05:38:04;;;;;;;5.45;1.85;;;;;;;;;;4975762;28;20088;-65
2023/08/10 05:40:29;;;;;;;10.70;1.85;;;;;;;;;;4975582;28;20054;-67
2023/08/10 05:42:55;;;;;;;11.30;1.73;;;;;;;;;;4975598;28;20046;-66
2023/08/10 05:45:21;;;;;;;14.18;2.63;;;;;;;;;;4975396;28;20027;-63
2023/08/10 05:47:49;;;;;;;8.18;1.63;;;;;;;;;;4975576;28;20034;-65
2023/08/10 05:50:15;;;;;;;8.00;1.70;;;;;;;;;;4975426;28;20082;-67
2023/08/10 05:52:40;;;;;;;8.70;1.73;;;;;;;;;;4959893;28;20031;-64
2023/08/10 05:55:06;;;;;;;13.45;2.70;;;;;;;;;;4956070;28;20030;-65
2023/08/10 05:57:32;;;;;;;6.72;1.52;;;;;;;;;;4956184;28;20441;-65
2023/08/10 05:59:57;;;;;;;62.83;7.00;;;;;;;;;;4955655;28;20524;-67
2023/08/10 06:02:23;;;;;;;14.38;2.17;;;;;;;;;;4955588;28;20381;-64
2023/08/10 06:04:49;;;;;;;10.70;2.35;;;;;;;;;;4955501;28;20028;-63
2023/08/10 06:07:15;;;;;;;8.48;1.80;;;;;;;;;;4955856;28;20035;-61
2023/08/10 06:09:41;;;;;;;24.05;3.17;;;;;;;;;;4955800;28;20034;-67
2023/08/10 06:12:07;;;;;;;10.70;1.67;;;;;;;;;;4955740;28;20031;-66
2023/08/10 06:14:33;;;;;;;10.68;2.33;;;;;;;;;;4955601;28;20046;-67
2023/08/10 06:16:58;;;;;;;8.02;1.80;;;;;;;;;;4955375;28;20493;-66
2023/08/10 06:19:24;;;;;;;7.60;1.55;;;;;;;;;;4955425;28;20019;-65
2023/08/10 06:21:50;;;;;;;89.13;9.52;;;;;;;;;;4966541;28;20031;-67
2023/08/10 06:24:16;;;;;;;11.88;1.55;;;;;;;;;;4974662;28;20033;-67
2023/08/10 06:26:42;;;;;;;17.02;1.80;;;;;;;;;;4974330;28;20027;-64
2023/08/10 06:29:08;;;;;;;4.70;1.38;;;;;;;;;;4974398;28;20041;-67
2023/08/10 06:31:34;;;;;;;9.05;1.70;;;;;;;;;;4953785;28;20036;-66
2023/08/10 06:33:59;;;;;;;5.95;1.50;;;;;;;;;;4936135;29;20035;-66
2023/08/10 06:36:26;;;;;;;9.25;1.75;;;;;;;;;;4936263;29;20454;-65
2023/08/10 06:38:53;;;;;;;8.40;1.48;;;;;;;;;;4935975;29;20024;-65
2023/08/10 06:41:18;;;;;;;7.75;1.50;;;;;;;;;;4935992;29;20046;-63
2023/08/10 06:43:43;;;;;;;8.90;1.70;;;;;;;;;;4935776;29;20031;-61
2023/08/10 06:46:09;;;;;;;5.10;1.45;;;;;;;;;;4936130;29;20039;-65
2023/08/10 06:48:34;;;;;;;8.65;2.20;;;;;;;;;;4935913;29;20039;-65
2023/08/10 06:51:00;;;;;;;7.25;1.70;;;;;;;;;;4937568;28;20031;-66
2023/08/10 06:53:26;;;;;;;9.55;2.15;;;;;;;;;;4950118;28;20491;-66
2023/08/10 06:55:52;;;;;;;5.88;2.35;;;;;;;;;;4958200;28;20082;-66
2023/08/10 06:58:17;;;;;;;7.40;2.20;;;;;;;;;;4954477;28;20034;-65
2023/08/10 07:00:43;;;;;;;11.88;1.95;;;;;;;;;;4966171;28;20500;-67
2023/08/10 07:03:08;;;;;;;7.70;1.70;;;;;;;;;;4954425;28;20042;-65
2023/08/10 07:05:38;;;;;;;7.80;1.52;;;;;;;;;;4954575;28;20390;-65
2023/08/10 07:08:03;;;;;;;9.48;1.67;;;;;;;;;;4954779;28;20118;-66
2023/08/10 07:10:29;;;;;;;12.15;2.00;;;;;;;;;;4954263;28;20106;-65
2023/08/10 07:12:54;;;;;;;7.30;1.60;;;;;;;;;;4971690;28;20034;-66
2023/08/10 07:15:20;;;;;;;5.53;1.27;;;;;;;;;;4972924;28;20481;-66
2023/08/10 07:17:45;;;;;;;5.30;1.48;;;;;;;;;;4973605;28;20043;-64
2023/08/10 07:20:12;;;;;;;10.27;1.88;;;;;;;;;;4973809;28;20388;-66
2023/08/10 07:22:38;;;;;;;7.63;1.85;;;;;;;;;;4954919;28;20031;-67
2023/08/10 07:25:05;;;;;;;6.20;1.55;;;;;;;;;;4954354;28;20058;-66
2023/08/10 07:27:34;;;;;;;10.57;2.10;;;;;;;;;;4954086;28;20027;-66
2023/08/10 07:30:01;;;;;;;18.35;2.58;;;;;;;;;;4954256;28;20023;-66
2023/08/10 07:32:27;;;;;;;8.73;1.70;;;;;;;;;;4954148;28;20035;-66
2023/08/10 07:34:52;;;;;;;5.18;1.38;;;;;;;;;;4954286;28;20081;-63
2023/08/10 07:37:18;;;;;;;4.53;1.55;;;;;;;;;;4954355;28;20107;-66
2023/08/10 07:39:43;;;;;;;12.68;1.98;;;;;;;;;;4954051;28;20035;-66
2023/08/10 07:42:09;;;;;;;5.03;1.33;;;;;;;;;;4954030;28;20038;-63
2023/08/10 07:44:34;;;;;;;5.78;1.42;;;;;;;;;;4954162;28;20027;-66
2023/08/10 07:46:59;;;;;;;7.90;1.63;;;;;;;;;;4954291;28;20110;-65
2023/08/10 07:49:25;;;;;;;8.20;1.80;;;;;;;;;;4971151;28;20034;-65
2023/08/10 07:51:50;;;;;;;7.32;1.58;;;;;;;;;;4964294;28;20039;-66
2023/08/10 07:54:16;;;;;;;10.15;1.55;;;;;;;;;;4954248;28;20063;-66
2023/08/10 07:56:42;;;;;;;7.10;1.45;;;;;;;;;;4953672;28;20120;-67
2023/08/10 07:59:08;;;;;;;5.55;1.80;;;;;;;;;;4953995;28;20027;-62
2023/08/10 08:01:33;;;;;;;5.97;1.33;;;;;;;;;;4953840;28;20031;-62
2023/08/10 08:03:59;;;;;;;4.38;1.40;;;;;;;;;;4954092;28;20031;-62
2023/08/10 08:06:24;;;;;;;3.58;1.48;;;;;;;;;;4954196;28;20524;-63
2023/08/10 08:08:50;;;;;;;8.63;1.52;;;;;;;;;;4953785;28;20425;-64
2023/08/10 08:11:15;;;;;;;6.00;1.40;;;;;;;;;;4953848;28;20023;-62
2023/08/10 08:13:41;;;;;;;4.35;1.63;;;;;;;;;;4953892;28;20058;-62
2023/08/10 08:16:06;;;;;;;5.80;1.30;;;;;;;;;;4953840;28;20028;-64
2023/08/10 08:18:47;;;;;;;3.38;1.23;;;;;;;;;;4953860;28;20023;-62
2023/08/10 08:21:20;;;;;;;4.53;1.50;;;;;;;;;;4954064;28;20035;-62
2023/08/10 08:23:47;;;;;;;4.68;1.50;;;;;;;;;;4953692;28;20027;-62
2023/08/10 08:26:17;;;;;;;8.05;1.52;;;;;;;;;;4954408;28;20504;-62
2023/08/10 08:28:44;;;;;;;4.57;1.10;;;;;;;;;;4957086;28;20035;-63
2023/08/10 08:31:10;;;;;;;3.50;1.23;;;;;;;;;;4957213;28;20031;-64
2023/08/10 08:33:36;;;;;;;3.60;1.50;;;;;;;;;;4957138;28;20024;-62
2023/08/10 08:36:02;;;;;;;7.35;1.60;;;;;;;;;;4957280;28;20058;-62
2023/08/10 08:38:29;;;;;;;6.05;1.77;;;;;;;;;;4956929;28;20611;-62
2023/08/10 08:40:56;;;;;;;4.97;1.38;;;;;;;;;;4957048;28;20032;-61
2023/08/10 08:43:22;;;;;;;5.82;1.58;;;;;;;;;;4957129;28;20141;-62
2023/08/10 08:45:48;;;;;;;7.15;1.60;;;;;;;;;;4957082;28;20032;-61
2023/08/10 08:48:15;;;;;;;5.78;1.30;;;;;;;;;;4964744;28;20034;-62
2023/08/10 08:50:40;;;;;;;3.67;1.33;;;;;;;;;;4976213;28;20026;-63
2023/08/10 08:53:12;;;;;;;5.97;1.55;;;;;;;;;;4956975;28;20035;-61
2023/08/10 08:55:38;;;;;;;5.25;1.60;;;;;;;;;;4956590;28;20469;-62
2023/08/10 08:58:04;;;;;;;3.30;1.30;;;;;;;;;;4956898;28;20095;-62
2023/08/10 09:00:31;;;;;;;5.65;1.70;;;;;;;;;;4956561;28;20023;-62
2023/08/10 09:02:56;;;;;;;3.40;1.27;;;;;;;;;;4956674;28;20031;-62
2023/08/10 09:05:22;;;;;;;5.53;1.73;;;;;;;;;;4956834;28;20027;-62
2023/08/10 09:07:48;;;;;;;3.97;1.20;;;;;;;;;;4956374;28;20035;-63
2023/08/10 09:10:13;;;;;;;6.07;1.50;;;;;;;;;;4956653;28;20035;-64
2023/08/10 09:12:40;;;;;;;4.18;1.30;;;;;;;;;;4956347;28;20039;-62
2023/08/10 09:15:08;;;;;;;7.90;1.65;;;;;;;;;;4956612;29;20034;-62
2023/08/10 09:17:35;;;;;;;5.63;1.17;;;;;;;;;;4956168;28;20130;-62
2023/08/10 09:20:02;;;;;;;6.35;1.80;;;;;;;;;;4956359;28;20067;-63
2023/08/10 09:22:34;;;;;;;5.55;1.67;;;;;;;;;;4955988;28;20027;-63
2023/08/10 09:25:09;;;;;;;4.43;1.20;;;;;;;;;;4956394;28;20057;-66
2023/08/10 09:27:35;;;;;;;7.80;1.38;;;;;;;;;;4956139;28;20031;-66
2023/08/10 09:30:07;;;;;;;8.43;1.63;;;;;;;;;;4954926;29;20536;-66
2023/08/10 09:32:34;;;;;;;7.60;1.88;;;;;;;;;;4956071;28;20125;-66
2023/08/10 09:34:59;;;;;;;5.20;1.40;;;;;;;;;;4956198;28;20023;-67
2023/08/10 09:37:25;;;;;;;7.95;1.73;;;;;;;;;;4955775;28;20023;-67
2023/08/10 09:40:00;;;;;;;3.38;1.35;;;;;;;;;;4955561;28;20155;-66
2023/08/10 09:42:30;;;;;;;7.28;2.75;;;;;;;;;;4955965;28;20035;-66
2023/08/10 09:44:58;;;;;;;4.28;1.42;;;;;;;;;;4956038;28;20031;-66
2023/08/10 09:47:24;;;;;;;7.07;1.55;;;;;;;;;;4957157;28;20090;-62
2023/08/10 09:49:57;;;;;;;4.90;1.45;;;;;;;;;;4975122;28;20031;-67
2023/08/10 09:52:23;;;;;;;4.38;1.40;;;;;;;;;;4961630;28;20038;-66
2023/08/10 09:54:50;;;;;;;6.47;1.73;;;;;;;;;;4955658;28;20040;-67
2023/08/10 09:57:18;;;;;;;7.63;1.55;;;;;;;;;;4955711;28;20118;-66
2023/08/10 09:59:45;;;;;;;2.92;1.17;;;;;;;;;;4955539;28;20461;-69
2023/08/10 10:02:11;;;;;;;4.43;1.10;;;;;;;;;;4955610;28;20078;-67
2023/08/10 10:04:38;;;;;;;5.78;1.25;;;;;;;;;;4955565;28;20079;-67
2023/08/10 10:07:05;;;;;;;4.93;1.27;;;;;;;;;;4955438;28;20053;-66
2023/08/10 10:09:33;;;;;;;5.45;1.52;;;;;;;;;;4953932;28;20393;-67
2023/08/10 10:12:00;;;;;;;4.70;1.42;;;;;;;;;;4955500;28;20023;-66
2023/08/10 10:14:27;;;;;;;3.80;1.23;;;;;;;;;;4955378;28;20031;-67
2023/08/10 10:16:53;;;;;;;6.07;1.35;;;;;;;;;;4955105;28;20449;-67
2023/08/10 10:19:19;;;;;;;6.78;1.23;;;;;;;;;;4955405;28;20110;-67
2023/08/10 10:21:44;;;;;;;5.47;1.38;;;;;;;;;;4954977;28;20033;-67
2023/08/10 10:24:12;;;;;;;4.32;1.20;;;;;;;;;;4955163;28;20106;-67
2023/08/10 10:26:38;;;;;;;6.00;1.38;;;;;;;;;;4954988;28;20054;-66
2023/08/10 10:29:15;;;;;;;3.88;1.20;;;;;;;;;;4955216;28;20066;-67
2023/08/10 10:31:40;;;;;;;4.30;1.20;;;;;;;;;;4954818;29;20085;-67
2023/08/10 10:34:10;;;;;;;4.95;1.08;;;;;;;;;;4954970;28;20031;-67
2023/08/10 10:36:38;;;;;;;;;;;;;;;;;;4955346;28;20028;-67
2023/08/10 10:39:07;;;;;;;6.43;1.42;;;;;;;;;;4954905;28;19914;-67
2023/08/10 10:41:39;;;;;;;4.18;1.00;;;;;;;;;;4954959;28;20035;-66
2023/08/10 10:44:05;;;;;;;3.97;1.20;;;;;;;;;;4954884;28;20125;-66
2023/08/10 10:46:31;;;;;;;5.65;1.20;;;;;;;;;;4954959;28;20037;-65
2023/08/10 10:48:57;;;;;;;6.63;1.30;;;;;;;;;;4967867;28;20031;-66
2023/08/10 10:51:23;;;;;;;5.80;1.48;;;;;;;;;;4968870;28;20031;-65
2023/08/10 10:53:54;;;;;;;3.83;1.08;;;;;;;;;;4954634;28;20109;-66
2023/08/10 10:56:21;;;;;;;5.47;1.13;;;;;;;;;;4954625;28;20023;-66
2023/08/10 10:58:49;;;;;;;4.82;1.00;;;;;;;;;;4954646;28;20034;-66
2023/08/10 11:01:22;;;;;;;3.28;1.00;;;;;;;;;;4954629;28;20388;-66
2023/08/10 11:03:54;;;;;;;3.83;1.20;;;;;;;;;;4954408;28;20037;-65
2023/08/10 11:06:20;;;;;;;4.10;1.40;;;;;;;;;;4954650;28;20106;-66
2023/08/10 11:08:51;;;;;;;5.68;1.20;;;;;;;;;;4954500;28;20066;-66
2023/08/10 11:11:17;;;;;;;3.22;1.13;;;;;;;;;;4954365;28;20031;-67
2023/08/10 11:13:43;;;;;;;5.40;1.05;;;;;;;;;;4954493;28;20492;-65
2023/08/10 11:16:09;;;;;;;3.92;1.10;;;;;;;;;;4954287;28;20051;-66
2023/08/10 11:18:37;;;;;;;4.68;1.40;;;;;;;;;;4954054;28;20070;-66
2023/08/10 11:21:06;;;;;;;7.40;1.20;;;;;;;;;;4954460;28;20424;-66
2023/08/10 11:23:32;;;;;;;3.45;1.10;;;;;;;;;;4954258;28;20023;-66
2023/08/10 11:25:57;;;;;;;5.93;1.50;;;;;;;;;;4953101;28;20046;-67
2023/08/10 11:28:25;;;;;;;5.22;1.20;;;;;;;;;;4954434;28;20031;-65
2023/08/10 11:30:50;;;;;;;5.90;1.70;;;;;;;;;;4954256;28;20031;-66
2023/08/10 11:33:16;;;;;;;7.28;1.85;;;;;;;;;;4954120;28;20435;-66
2023/08/10 11:35:48;;;;;;;5.43;1.17;;;;;;;;;;4954314;28;20027;-66
2023/08/10 11:38:13;;;;;;;4.95;1.00;;;;;;;;;;4954354;28;20339;-66
2023/08/10 11:40:39;;;;;;;5.93;1.30;;;;;;;;;;4954287;28;20461;-67
2023/08/10 11:43:12;;;;;;;5.22;1.00;;;;;;;;;;4954311;28;20577;-65
2023/08/10 11:45:39;;;;;;;3.60;1.08;;;;;;;;;;4954253;28;20113;-66
2023/08/10 11:48:16;;;;;;;6.88;1.27;;;;;;;;;;4960421;28;20030;-66
2023/08/10 11:50:43;;;;;;;4.00;1.30;;;;;;;;;;4973383;28;20031;-66
2023/08/10 11:53:10;;;;;;;9.45;2.10;;;;;;;;;;4954067;28;20043;-66
2023/08/10 11:55:40;;;;;;;3.55;1.00;;;;;;;;;;4953821;28;20036;-66
2023/08/10 11:58:06;;;;;;;3.58;1.00;;;;;;;;;;4954248;28;20063;-65
2023/08/10 12:00:34;;;;;;;6.05;1.20;;;;;;;;;;4953942;28;20079;-66
2023/08/10 12:02:59;;;;;;;5.00;1.30;;;;;;;;;;4957189;28;20042;-66
2023/08/10 12:05:38;;;;;;;5.35;1.00;;;;;;;;;;4957452;28;20393;-66
2023/08/10 12:08:07;;;;;;;3.72;0.93;;;;;;;;;;4957741;29;20080;-67
2023/08/10 12:10:34;;;;;;;2.88;1.00;;;;;;;;;;4957718;29;20117;-67
2023/08/10 12:13:05;;;;;;;3.88;1.38;;;;;;;;;;4957466;29;20035;-66
2023/08/10 12:15:31;;;;;;;4.15;0.98;;;;;;;;;;4957513;29;20536;-67
2023/08/10 12:17:57;;;;;;;4.75;1.27;;;;;;;;;;4956973;29;20565;-66
2023/08/10 12:20:22;;;;;;;3.47;1.00;;;;;;;;;;4957577;28;20106;-68
2023/08/10 12:22:48;;;;;;;7.50;1.05;;;;;;;;;;4957389;29;20019;-63
2023/08/10 12:25:13;;;;;;;5.78;1.05;;;;;;;;;;4957360;29;20428;-64
2023/08/10 12:27:39;;;;;;;4.93;1.20;;;;;;;;;;4957195;29;20035;-63
2023/08/10 12:30:05;;;;;;;5.03;1.20;;;;;;;;;;4957084;29;20018;-62
2023/08/10 12:32:30;;;;;;;6.80;1.10;;;;;;;;;;4957123;28;20032;-64
2023/08/10 12:34:56;;;;;;;5.35;1.10;;;;;;;;;;4957236;28;20034;-66
2023/08/10 12:37:24;;;;;;;5.50;1.35;;;;;;;;;;4957192;28;20020;-67
2023/08/10 12:39:50;;;;;;;8.77;1.77;;;;;;;;;;4957341;28;20027;-66
2023/08/10 12:42:15;;;;;;;7.90;1.38;;;;;;;;;;4957141;28;20484;-66
2023/08/10 12:44:41;;;;;;;4.38;1.08;;;;;;;;;;4956882;28;20030;-62
2023/08/10 12:47:06;;;;;;;3.42;0.90;;;;;;;;;;4957112;28;20027;-62
2023/08/10 12:49:32;;;;;;;3.10;0.98;;;;;;;;;;4975075;28;20030;-62
2023/08/10 12:51:57;;;;;;;4.53;1.23;;;;;;;;;;4966436;28;20024;-64
2023/08/10 12:54:22;;;;;;;8.82;1.30;;;;;;;;;;4956883;28;20114;-66
2023/08/10 12:56:48;;;;;;;4.60;1.17;;;;;;;;;;4956620;28;20038;-67
2023/08/10 12:59:13;;;;;;;3.33;1.05;;;;;;;;;;4956573;28;20465;-67
2023/08/10 13:01:39;;;;;;;4.03;1.13;;;;;;;;;;4956585;28;20031;-62
2023/08/10 13:04:04;;;;;;;2.42;0.95;;;;;;;;;;4956914;28;20042;-67
2023/08/10 13:06:30;;;;;;;3.53;1.33;;;;;;;;;;4956977;28;20369;-65
2023/08/10 13:08:57;;;;;;;4.35;1.23;;;;;;;;;;4956590;28;20038;-67
2023/08/10 13:11:22;;;;;;;3.85;1.00;;;;;;;;;;4955346;28;20054;-67
2023/08/10 13:13:48;;;;;;;6.18;0.98;;;;;;;;;;4955119;28;20031;-65
2023/08/10 13:16:13;;;;;;;3.10;1.23;;;;;;;;;;4956371;28;20062;-67
2023/08/10 13:18:39;;;;;;;3.80;0.98;;;;;;;;;;4956197;29;20050;-67
2023/08/10 13:21:04;;;;;;;4.75;1.02;;;;;;;;;;4956337;28;20027;-67
2023/08/10 13:23:30;;;;;;;2.17;0.80;;;;;;;;;;4956353;28;20027;-67
2023/08/10 13:25:55;;;;;;;4.32;1.10;;;;;;;;;;4956363;28;20023;-67
2023/08/10 13:28:21;;;;;;;3.42;0.95;;;;;;;;;;4956158;28;20038;-66
2023/08/10 13:30:46;;;;;;;2.95;0.80;;;;;;;;;;4956053;28;20463;-67
2023/08/10 13:33:12;;;;;;;1.98;1.00;;;;;;;;;;4956018;28;20384;-67
2023/08/10 13:35:37;;;;;;;3.20;1.00;;;;;;;;;;4956011;28;20027;-67
2023/08/10 13:38:03;;;;;;;3.47;1.00;;;;;;;;;;4956121;28;20059;-67
2023/08/10 13:40:28;;;;;;;4.00;1.20;;;;;;;;;;4956122;28;20109;-67
2023/08/10 13:42:54;;;;;;;3.85;1.15;;;;;;;;;;4955695;28;20465;-67
2023/08/10 13:45:19;;;;;;;5.40;1.52;;;;;;;;;;4955907;28;20121;-67
2023/08/10 13:47:44;;;;;;;5.88;1.20;;;;;;;;;;4959734;28;20048;-67
2023/08/10 13:50:10;;;;;;;4.78;1.20;;;;;;;;;;4975396;28;20026;-65
2023/08/10 13:52:35;;;;;;;2.85;1.15;;;;;;;;;;4960148;28;20031;-67
2023/08/10 13:55:03;;;;;;;3.80;1.00;;;;;;;;;;4955563;28;20058;-67
2023/08/10 13:57:29;;;;;;;6.55;1.13;;;;;;;;;;4955402;28;20755;-66
2023/08/10 13:59:54;;;;;;;6.22;1.17;;;;;;;;;;4955597;28;20062;-66
2023/08/10 14:02:20;;;;;;;4.90;1.30;;;;;;;;;;4955560;28;20034;-67
2023/08/10 14:04:46;;;;;;;2.72;0.90;;;;;;;;;;4955420;28;20115;-67
2023/08/10 14:07:14;;;;;;;4.28;1.00;;;;;;;;;;4955369;28;20023;-66
2023/08/10 14:09:41;;;;;;;5.82;1.00;;;;;;;;;;4955561;28;20032;-67
2023/08/10 14:12:07;;;;;;;2.30;0.77;;;;;;;;;;4955282;28;20073;-67
2023/08/10 14:14:32;;;;;;;2.70;0.85;;;;;;;;;;4955556;28;20059;-65
2023/08/10 14:16:58;;;;;;;5.57;1.17;;;;;;;;;;4954055;29;20050;-67
2023/08/10 14:19:24;;;;;;;5.32;1.00;;;;;;;;;;4955376;28;20437;-67
2023/08/10 14:21:49;;;;;;;4.25;1.10;;;;;;;;;;4955219;28;20046;-67
2023/08/10 14:24:15;;;;;;;2.55;0.90;;;;;;;;;;4954985;28;20030;-66
2023/08/10 14:26:40;;;;;;;5.60;1.13;;;;;;;;;;4954911;28;20395;-63
2023/08/10 14:29:06;;;;;;;8.30;1.42;;;;;;;;;;4955097;28;20031;-65
2023/08/10 14:31:32;;;;;;;4.15;0.88;;;;;;;;;;4954812;28;20019;-62
2023/08/10 14:33:58;;;;;;;6.07;0.90;;;;;;;;;;4955029;28;20034;-67
2023/08/10 14:36:24;;;;;;;3.95;0.95;;;;;;;;;;4954927;28;20031;-63
2023/08/10 14:38:50;;;;;;;4.07;1.00;;;;;;;;;;4954837;28;20027;-63